sensor_id;sensor_type;location;lat;lon;timestamp;pressure;altitude;pressure_sealevel;temperature;humidity
53246;BME280;39569;51.090;-1.786;2024-03-22T00:01:55;101565.22;;;18.61;51.39
53246;BME280;39569;51.090;-1.786;2024-03-22T00:04:21;101567.97;;;18.08;52.77
53246;BME280;39569;51.090;-1.786;2024-03-22T00:06:49;101559.41;;;18.64;51.71
53246;BME280;39569;51.090;-1.786;2024-03-22T00:09:15;101559.53;;;18.37;52.36
53246;BME280;39569;51.090;-1.786;2024-03-22T00:11:43;101560.13;;;18.19;52.94
53246;BME280;39569;51.090;-1.786;2024-03-22T00:14:09;101554.03;;;18.04;53.55
53246;BME280;39569;51.090;-1.786;2024-03-22T00:16:38;101554.13;;;17.42;55.04
53246;BME280;39569;51.090;-1.786;2024-03-22T00:19:04;101550.56;;;17.70;54.27
53246;BME280;39569;51.090;-1.786;2024-03-22T00:21:31;101543.06;;;17.31;55.23
53246;BME280;39569;51.090;-1.786;2024-03-22T00:23:57;101544.09;;;18.18;53.14
53246;BME280;39569;51.090;-1.786;2024-03-22T00:26:24;101536.09;;;17.49;54.48
53246;BME280;39569;51.090;-1.786;2024-03-22T00:28:50;101537.91;;;17.42;55.04
53246;BME280;39569;51.090;-1.786;2024-03-22T00:31:17;101532.34;;;17.16;55.68
53246;BME280;39569;51.090;-1.786;2024-03-22T00:33:44;101516.84;;;18.26;52.90
53246;BME280;39569;51.090;-1.786;2024-03-22T00:36:10;101530.88;;;17.89;52.67
53246;BME280;39569;51.090;-1.786;2024-03-22T00:38:36;101527.94;;;17.43;53.75
53246;BME280;39569;51.090;-1.786;2024-03-22T00:41:03;101514.19;;;18.39;51.49
53246;BME280;39569;51.090;-1.786;2024-03-22T00:43:29;101514.81;;;17.67;52.96
53246;BME280;39569;51.090;-1.786;2024-03-22T00:45:56;101508.53;;;17.60;51.98
53246;BME280;39569;51.090;-1.786;2024-03-22T00:48:21;101519.78;;;17.30;52.34
53246;BME280;39569;51.090;-1.786;2024-03-22T00:50:49;101516.63;;;17.60;52.14
53246;BME280;39569;51.090;-1.786;2024-03-22T00:53:15;101501.94;;;17.01;53.49
53246;BME280;39569;51.090;-1.786;2024-03-22T00:55:42;101504.91;;;17.47;51.64
53246;BME280;39569;51.090;-1.786;2024-03-22T00:58:07;101490.66;;;18.33;49.77
53246;BME280;39569;51.090;-1.786;2024-03-22T01:00:34;101491.28;;;18.28;49.45
53246;BME280;39569;51.090;-1.786;2024-03-22T01:03:02;101490.34;;;17.89;50.56
53246;BME280;39569;51.090;-1.786;2024-03-22T01:05:29;101497.50;;;17.21;51.05
53246;BME280;39569;51.090;-1.786;2024-03-22T01:07:56;101493.44;;;17.79;49.98
53246;BME280;39569;51.090;-1.786;2024-03-22T01:10:22;101489.38;;;17.55;50.06
53246;BME280;39569;51.090;-1.786;2024-03-22T01:12:48;101488.88;;;17.80;49.62
53246;BME280;39569;51.090;-1.786;2024-03-22T01:15:15;101496.59;;;17.89;49.06
53246;BME280;39569;51.090;-1.786;2024-03-22T01:17:40;101492.03;;;17.96;48.26
53246;BME280;39569;51.090;-1.786;2024-03-22T01:20:08;101486.84;;;17.95;48.55
53246;BME280;39569;51.090;-1.786;2024-03-22T01:22:34;101486.00;;;17.94;48.27
53246;BME280;39569;51.090;-1.786;2024-03-22T01:25:02;101476.91;;;18.15;47.67
53246;BME280;39569;51.090;-1.786;2024-03-22T01:27:28;101469.47;;;17.63;48.65
53246;BME280;39569;51.090;-1.786;2024-03-22T01:29:54;101454.88;;;18.18;47.53
53246;BME280;39569;51.090;-1.786;2024-03-22T01:32:20;101447.78;;;18.17;47.15
53246;BME280;39569;51.090;-1.786;2024-03-22T01:34:47;101448.59;;;18.11;47.30
53246;BME280;39569;51.090;-1.786;2024-03-22T01:37:12;101446.75;;;18.18;46.99
53246;BME280;39569;51.090;-1.786;2024-03-22T01:39:39;101444.84;;;18.05;47.45
53246;BME280;39569;51.090;-1.786;2024-03-22T01:42:06;101446.66;;;17.31;48.59
53246;BME280;39569;51.090;-1.786;2024-03-22T01:44:33;101445.56;;;17.60;47.79
53246;BME280;39569;51.090;-1.786;2024-03-22T01:46:59;101440.81;;;17.62;47.68
53246;BME280;39569;51.090;-1.786;2024-03-22T01:49:26;101433.78;;;17.81;47.33
53246;BME280;39569;51.090;-1.786;2024-03-22T01:51:52;101434.06;;;18.12;46.45
53246;BME280;39569;51.090;-1.786;2024-03-22T01:54:20;101425.16;;;18.63;45.71
53246;BME280;39569;51.090;-1.786;2024-03-22T01:56:46;101419.50;;;18.06;46.34
53246;BME280;39569;51.090;-1.786;2024-03-22T01:59:15;101424.09;;;18.71;45.41
53246;BME280;39569;51.090;-1.786;2024-03-22T02:01:41;101420.38;;;18.52;45.79
53246;BME280;39569;51.090;-1.786;2024-03-22T02:04:08;101422.19;;;18.39;46.06
53246;BME280;39569;51.090;-1.786;2024-03-22T02:06:35;101411.59;;;18.24;45.43
53246;BME280;39569;51.090;-1.786;2024-03-22T02:09:01;101400.34;;;18.08;46.27
53246;BME280;39569;51.090;-1.786;2024-03-22T02:11:30;101394.53;;;18.17;46.42
53246;BME280;39569;51.090;-1.786;2024-03-22T02:13:57;101404.34;;;18.57;45.96
53246;BME280;39569;51.090;-1.786;2024-03-22T02:16:24;101401.63;;;18.64;46.05
53246;BME280;39569;51.090;-1.786;2024-03-22T02:18:51;101413.69;;;18.55;46.03
53246;BME280;39569;51.090;-1.786;2024-03-22T02:21:17;101412.25;;;18.52;45.91
53246;BME280;39569;51.090;-1.786;2024-03-22T02:23:44;101427.44;;;18.60;45.79
53246;BME280;39569;51.090;-1.786;2024-03-22T02:26:11;101417.25;;;18.49;45.86
53246;BME280;39569;51.090;-1.786;2024-03-22T02:28:37;101416.41;;;18.48;46.15
53246;BME280;39569;51.090;-1.786;2024-03-22T02:31:04;101403.91;;;18.08;47.13
53246;BME280;39569;51.090;-1.786;2024-03-22T02:33:30;101403.69;;;18.23;46.34
53246;BME280;39569;51.090;-1.786;2024-03-22T02:35:57;101396.09;;;17.59;47.25
53246;BME280;39569;51.090;-1.786;2024-03-22T02:38:23;101395.53;;;17.84;46.13
53246;BME280;39569;51.090;-1.786;2024-03-22T02:40:52;101398.69;;;17.94;46.11
53246;BME280;39569;51.090;-1.786;2024-03-22T02:43:18;101402.22;;;18.20;45.37
53246;BME280;39569;51.090;-1.786;2024-03-22T02:45:46;101390.56;;;17.94;45.86
53246;BME280;39569;51.090;-1.786;2024-03-22T02:48:12;101394.72;;;17.90;45.53
53246;BME280;39569;51.090;-1.786;2024-03-22T02:50:39;101396.16;;;17.25;46.84
53246;BME280;39569;51.090;-1.786;2024-03-22T02:53:05;101392.69;;;17.44;46.47
53246;BME280;39569;51.090;-1.786;2024-03-22T02:55:36;101392.44;;;18.13;45.31
53246;BME280;39569;51.090;-1.786;2024-03-22T02:58:04;101393.72;;;18.23;45.06
53246;BME280;39569;51.090;-1.786;2024-03-22T03:00:30;101384.34;;;18.26;45.07
53246;BME280;39569;51.090;-1.786;2024-03-22T03:02:56;101378.91;;;17.87;45.69
53246;BME280;39569;51.090;-1.786;2024-03-22T03:05:23;101384.31;;;18.00;45.43
53246;BME280;39569;51.090;-1.786;2024-03-22T03:07:49;101376.00;;;17.95;45.84
53246;BME280;39569;51.090;-1.786;2024-03-22T03:10:16;101372.69;;;18.19;45.47
53246;BME280;39569;51.090;-1.786;2024-03-22T03:12:41;101369.09;;;17.59;46.43
53246;BME280;39569;51.090;-1.786;2024-03-22T03:15:09;101365.97;;;17.56;46.97
53246;BME280;39569;51.090;-1.786;2024-03-22T03:17:35;101361.53;;;16.88;48.16
53246;BME280;39569;51.090;-1.786;2024-03-22T03:20:02;101353.31;;;17.56;46.96
53246;BME280;39569;51.090;-1.786;2024-03-22T03:22:33;101364.31;;;16.67;48.64
53246;BME280;39569;51.090;-1.786;2024-03-22T03:24:59;101357.97;;;16.53;49.26
53246;BME280;39569;51.090;-1.786;2024-03-22T03:27:25;101354.09;;;17.03;48.69
53246;BME280;39569;51.090;-1.786;2024-03-22T03:29:52;101362.13;;;16.90;48.67
53246;BME280;39569;51.090;-1.786;2024-03-22T03:32:20;101352.66;;;17.01;48.71
53246;BME280;39569;51.090;-1.786;2024-03-22T03:34:45;101337.47;;;16.31;50.34
53246;BME280;39569;51.090;-1.786;2024-03-22T03:37:12;101344.59;;;16.11;51.04
53246;BME280;39569;51.090;-1.786;2024-03-22T03:39:38;101342.53;;;16.68;49.74
53246;BME280;39569;51.090;-1.786;2024-03-22T03:42:05;101327.03;;;16.84;49.65
53246;BME280;39569;51.090;-1.786;2024-03-22T03:44:31;101322.47;;;17.38;48.61
53246;BME280;39569;51.090;-1.786;2024-03-22T03:46:58;101308.53;;;17.28;49.29
53246;BME280;39569;51.090;-1.786;2024-03-22T03:49:25;101309.09;;;17.10;49.68
53246;BME280;39569;51.090;-1.786;2024-03-22T03:51:52;101320.09;;;16.34;52.14
53246;BME280;39569;51.090;-1.786;2024-03-22T03:54:18;101307.03;;;17.12;49.97
53246;BME280;39569;51.090;-1.786;2024-03-22T03:56:45;101303.06;;;17.08;50.18
53246;BME280;39569;51.090;-1.786;2024-03-22T03:59:10;101308.28;;;17.16;50.39
53246;BME280;39569;51.090;-1.786;2024-03-22T04:01:37;101308.66;;;17.93;48.67
53246;BME280;39569;51.090;-1.786;2024-03-22T04:04:03;101316.91;;;16.92;51.34
53246;BME280;39569;51.090;-1.786;2024-03-22T04:06:31;101313.75;;;17.42;50.30
53246;BME280;39569;51.090;-1.786;2024-03-22T04:08:57;101310.72;;;17.91;49.76
53246;BME280;39569;51.090;-1.786;2024-03-22T04:11:23;101315.72;;;18.14;49.20
53246;BME280;39569;51.090;-1.786;2024-03-22T04:13:49;101306.50;;;17.49;50.69
53246;BME280;39569;51.090;-1.786;2024-03-22T04:16:16;101307.19;;;17.97;50.01
53246;BME280;39569;51.090;-1.786;2024-03-22T04:18:42;101308.22;;;17.96;49.54
53246;BME280;39569;51.090;-1.786;2024-03-22T04:21:08;101308.44;;;17.75;49.87
53246;BME280;39569;51.090;-1.786;2024-03-22T04:23:35;101307.97;;;18.56;48.01
53246;BME280;39569;51.090;-1.786;2024-03-22T04:26:02;101311.34;;;17.87;49.16
53246;BME280;39569;51.090;-1.786;2024-03-22T04:28:28;101308.75;;;17.39;50.51
53246;BME280;39569;51.090;-1.786;2024-03-22T04:30:57;101311.31;;;16.94;51.54
53246;BME280;39569;51.090;-1.786;2024-03-22T04:33:23;101303.66;;;17.84;49.28
53246;BME280;39569;51.090;-1.786;2024-03-22T04:35:50;101302.72;;;17.31;50.63
53246;BME280;39569;51.090;-1.786;2024-03-22T04:38:16;101305.94;;;18.06;48.77
53246;BME280;39569;51.090;-1.786;2024-03-22T04:40:44;101298.88;;;17.73;49.57
53246;BME280;39569;51.090;-1.786;2024-03-22T04:43:11;101303.53;;;17.25;50.65
53246;BME280;39569;51.090;-1.786;2024-03-22T04:45:38;101305.38;;;16.64;52.28
53246;BME280;39569;51.090;-1.786;2024-03-22T04:48:05;101299.22;;;17.43;51.02
53246;BME280;39569;51.090;-1.786;2024-03-22T04:50:31;101300.94;;;17.64;49.98
53246;BME280;39569;51.090;-1.786;2024-03-22T04:52:58;101304.44;;;16.91;51.95
53246;BME280;39569;51.090;-1.786;2024-03-22T04:55:23;101298.44;;;18.02;49.11
53246;BME280;39569;51.090;-1.786;2024-03-22T04:57:52;101299.19;;;17.37;50.67
53246;BME280;39569;51.090;-1.786;2024-03-22T05:00:18;101296.28;;;17.32;50.37
53246;BME280;39569;51.090;-1.786;2024-03-22T05:02:44;101288.34;;;17.24;50.72
53246;BME280;39569;51.090;-1.786;2024-03-22T05:05:11;101288.91;;;17.86;49.72
53246;BME280;39569;51.090;-1.786;2024-03-22T05:07:38;101288.34;;;17.17;51.27
53246;BME280;39569;51.090;-1.786;2024-03-22T05:10:04;101296.28;;;17.38;50.89
53246;BME280;39569;51.090;-1.786;2024-03-22T05:12:31;101285.16;;;16.94;51.77
53246;BME280;39569;51.090;-1.786;2024-03-22T05:14:59;101283.25;;;17.48;50.32
53246;BME280;39569;51.090;-1.786;2024-03-22T05:17:25;101288.47;;;17.70;50.66
53246;BME280;39569;51.090;-1.786;2024-03-22T05:19:51;101279.47;;;18.54;48.18
53246;BME280;39569;51.090;-1.786;2024-03-22T05:22:18;101285.50;;;17.45;50.94
53246;BME280;39569;51.090;-1.786;2024-03-22T05:24:45;101277.25;;;17.79;50.54
53246;BME280;39569;51.090;-1.786;2024-03-22T05:27:12;101273.09;;;17.77;50.04
53246;BME280;39569;51.090;-1.786;2024-03-22T05:29:38;101274.13;;;16.89;52.38
53246;BME280;39569;51.090;-1.786;2024-03-22T05:32:06;101267.69;;;17.50;51.04
53246;BME280;39569;51.090;-1.786;2024-03-22T05:34:32;101273.69;;;18.24;49.53
53246;BME280;39569;51.090;-1.786;2024-03-22T05:36:59;101271.19;;;18.23;49.13
53246;BME280;39569;51.090;-1.786;2024-03-22T05:39:24;101272.25;;;17.76;50.86
53246;BME280;39569;51.090;-1.786;2024-03-22T05:41:51;101270.78;;;17.74;50.46
53246;BME280;39569;51.090;-1.786;2024-03-22T05:44:17;101269.47;;;17.24;52.26
53246;BME280;39569;51.090;-1.786;2024-03-22T05:46:43;101272.59;;;17.40;51.77
53246;BME280;39569;51.090;-1.786;2024-03-22T05:49:11;101255.91;;;18.61;49.07
53246;BME280;39569;51.090;-1.786;2024-03-22T05:51:37;101254.22;;;18.67;48.90
53246;BME280;39569;51.090;-1.786;2024-03-22T05:54:04;101254.25;;;18.60;48.65
53246;BME280;39569;51.090;-1.786;2024-03-22T05:56:30;101256.56;;;18.37;48.54
53246;BME280;39569;51.090;-1.786;2024-03-22T05:58:57;101248.47;;;17.13;52.05
53246;BME280;39569;51.090;-1.786;2024-03-22T06:01:22;101262.06;;;17.78;50.70
53246;BME280;39569;51.090;-1.786;2024-03-22T06:03:49;101250.88;;;18.71;48.75
53246;BME280;39569;51.090;-1.786;2024-03-22T06:06:16;101261.47;;;17.83;50.61
53246;BME280;39569;51.090;-1.786;2024-03-22T06:08:43;101264.47;;;17.27;52.08
53246;BME280;39569;51.090;-1.786;2024-03-22T06:11:10;101262.66;;;18.32;49.95
53246;BME280;39569;51.090;-1.786;2024-03-22T06:13:37;101252.09;;;17.79;51.05
53246;BME280;39569;51.090;-1.786;2024-03-22T06:16:03;101249.78;;;18.21;50.47
53246;BME280;39569;51.090;-1.786;2024-03-22T06:18:30;101246.03;;;18.16;49.96
53246;BME280;39569;51.090;-1.786;2024-03-22T06:20:56;101241.59;;;18.54;49.66
53246;BME280;39569;51.090;-1.786;2024-03-22T06:23:24;101247.53;;;18.76;49.26
53246;BME280;39569;51.090;-1.786;2024-03-22T06:25:53;101240.28;;;19.07;48.35
53246;BME280;39569;51.090;-1.786;2024-03-22T06:28:20;101243.59;;;19.09;48.28
53246;BME280;39569;51.090;-1.786;2024-03-22T06:30:45;101233.69;;;18.97;48.74
53246;BME280;39569;51.090;-1.786;2024-03-22T06:33:12;101233.16;;;19.19;48.15
53246;BME280;39569;51.090;-1.786;2024-03-22T06:35:38;101240.34;;;19.01;48.34
53246;BME280;39569;51.090;-1.786;2024-03-22T06:38:04;101233.25;;;19.37;47.88
53246;BME280;39569;51.090;-1.786;2024-03-22T06:40:32;101246.88;;;19.80;47.13
53246;BME280;39569;51.090;-1.786;2024-03-22T06:42:59;101239.31;;;18.51;49.91
53246;BME280;39569;51.090;-1.786;2024-03-22T06:45:24;101223.00;;;19.08;48.96
53246;BME280;39569;51.090;-1.786;2024-03-22T06:47:51;101225.97;;;18.56;49.73
53246;BME280;39569;51.090;-1.786;2024-03-22T06:50:17;101222.47;;;18.87;49.63
53246;BME280;39569;51.090;-1.786;2024-03-22T06:52:44;101235.22;;;18.09;51.75
53246;BME280;39569;51.090;-1.786;2024-03-22T06:55:10;101237.69;;;18.24;51.53
53246;BME280;39569;51.090;-1.786;2024-03-22T06:57:38;101229.78;;;18.86;49.97
53246;BME280;39569;51.090;-1.786;2024-03-22T07:00:05;101222.63;;;19.29;49.28
53246;BME280;39569;51.090;-1.786;2024-03-22T07:02:35;101225.31;;;18.67;50.07
53246;BME280;39569;51.090;-1.786;2024-03-22T07:05:01;101226.28;;;18.02;51.89
53246;BME280;39569;51.090;-1.786;2024-03-22T07:07:29;101229.69;;;18.55;51.39
53246;BME280;39569;51.090;-1.786;2024-03-22T07:09:56;101223.22;;;18.69;50.52
53246;BME280;39569;51.090;-1.786;2024-03-22T07:12:24;101225.34;;;18.98;50.18
53246;BME280;39569;51.090;-1.786;2024-03-22T07:14:51;101229.31;;;18.38;51.09
53246;BME280;39569;51.090;-1.786;2024-03-22T07:17:18;101220.47;;;19.13;49.65
53246;BME280;39569;51.090;-1.786;2024-03-22T07:19:49;101229.91;;;18.53;51.31
53246;BME280;39569;51.090;-1.786;2024-03-22T07:22:16;101226.53;;;19.09;49.62
53246;BME280;39569;51.090;-1.786;2024-03-22T07:24:42;101220.34;;;18.57;50.76
53246;BME280;39569;51.090;-1.786;2024-03-22T07:27:08;101236.06;;;18.10;52.35
53246;BME280;39569;51.090;-1.786;2024-03-22T07:29:35;101212.47;;;18.94;50.29
53246;BME280;39569;51.090;-1.786;2024-03-22T07:32:03;101223.22;;;18.69;51.21
53246;BME280;39569;51.090;-1.786;2024-03-22T07:34:29;101222.88;;;19.34;49.85
53246;BME280;39569;51.090;-1.786;2024-03-22T07:36:56;101225.28;;;19.42;49.32
53246;BME280;39569;51.090;-1.786;2024-03-22T07:39:22;101233.75;;;20.02;47.53
53246;BME280;39569;51.090;-1.786;2024-03-22T07:41:49;101238.47;;;19.88;48.47
53246;BME280;39569;51.090;-1.786;2024-03-22T07:44:15;101233.66;;;19.66;48.79
53246;BME280;39569;51.090;-1.786;2024-03-22T07:46:43;101234.31;;;19.86;48.67
53246;BME280;39569;51.090;-1.786;2024-03-22T07:49:11;101243.19;;;19.75;48.76
53246;BME280;39569;51.090;-1.786;2024-03-22T07:51:37;101236.81;;;19.31;50.01
53246;BME280;39569;51.090;-1.786;2024-03-22T07:54:03;101252.47;;;18.92;50.91
53246;BME280;39569;51.090;-1.786;2024-03-22T07:56:30;101251.41;;;19.30;49.77
53246;BME280;39569;51.090;-1.786;2024-03-22T07:58:55;101242.44;;;18.92;51.20
53246;BME280;39569;51.090;-1.786;2024-03-22T08:01:22;101241.56;;;19.05;50.89
53246;BME280;39569;51.090;-1.786;2024-03-22T08:03:48;101242.72;;;19.78;49.53
53246;BME280;39569;51.090;-1.786;2024-03-22T08:06:16;101237.09;;;20.22;48.42
53246;BME280;39569;51.090;-1.786;2024-03-22T08:08:42;101251.34;;;19.43;50.16
53246;BME280;39569;51.090;-1.786;2024-03-22T08:11:09;101248.47;;;18.94;51.44
53246;BME280;39569;51.090;-1.786;2024-03-22T08:13:34;101244.81;;;18.76;52.02
53246;BME280;39569;51.090;-1.786;2024-03-22T08:16:01;101254.78;;;18.82;52.37
53246;BME280;39569;51.090;-1.786;2024-03-22T08:18:27;101246.00;;;19.30;50.72
53246;BME280;39569;51.090;-1.786;2024-03-22T08:20:54;101244.00;;;19.50;50.64
53246;BME280;39569;51.090;-1.786;2024-03-22T08:23:21;101235.03;;;19.50;51.13
53246;BME280;39569;51.090;-1.786;2024-03-22T08:25:48;101230.97;;;18.97;51.79
53246;BME280;39569;51.090;-1.786;2024-03-22T08:28:14;101238.88;;;18.54;53.16
53246;BME280;39569;51.090;-1.786;2024-03-22T08:30:42;101245.53;;;18.38;53.75
53246;BME280;39569;51.090;-1.786;2024-03-22T08:33:08;101249.44;;;18.75;53.55
53246;BME280;39569;51.090;-1.786;2024-03-22T08:35:35;101237.09;;;19.23;52.08
53246;BME280;39569;51.090;-1.786;2024-03-22T08:38:01;101238.97;;;19.79;50.91
53246;BME280;39569;51.090;-1.786;2024-03-22T08:40:29;101235.47;;;19.47;51.88
53246;BME280;39569;51.090;-1.786;2024-03-22T08:42:55;101232.88;;;19.34;51.79
53246;BME280;39569;51.090;-1.786;2024-03-22T08:45:22;101240.41;;;19.81;51.20
53246;BME280;39569;51.090;-1.786;2024-03-22T08:47:47;101239.59;;;19.81;50.98
53246;BME280;39569;51.090;-1.786;2024-03-22T08:50:14;101232.06;;;20.25;49.57
53246;BME280;39569;51.090;-1.786;2024-03-22T08:52:40;101233.25;;;19.87;51.14
53246;BME280;39569;51.090;-1.786;2024-03-22T08:55:07;101235.16;;;19.86;50.76
53246;BME280;39569;51.090;-1.786;2024-03-22T08:57:35;101235.22;;;19.98;50.20
53246;BME280;39569;51.090;-1.786;2024-03-22T09:00:02;101239.59;;;19.18;52.12
53246;BME280;39569;51.090;-1.786;2024-03-22T09:02:27;101234.16;;;19.18;52.96
53246;BME280;39569;51.090;-1.786;2024-03-22T09:04:54;101233.66;;;19.66;51.43
53246;BME280;39569;51.090;-1.786;2024-03-22T09:07:21;101237.47;;;19.58;51.40
53246;BME280;39569;51.090;-1.786;2024-03-22T09:09:49;101230.84;;;19.54;51.52
53246;BME280;39569;51.090;-1.786;2024-03-22T09:12:14;101236.75;;;19.69;51.50
53246;BME280;39569;51.090;-1.786;2024-03-22T09:14:42;101228.63;;;19.69;51.61
53246;BME280;39569;51.090;-1.786;2024-03-22T09:17:08;101216.41;;;20.45;49.73
53246;BME280;39569;51.090;-1.786;2024-03-22T09:19:35;101212.97;;;20.86;48.13
53246;BME280;39569;51.090;-1.786;2024-03-22T09:22:00;101215.19;;;20.89;48.09
53246;BME280;39569;51.090;-1.786;2024-03-22T09:24:28;101228.00;;;19.42;51.56
53246;BME280;39569;51.090;-1.786;2024-03-22T09:26:54;101227.19;;;20.09;50.25
53246;BME280;39569;51.090;-1.786;2024-03-22T09:29:20;101213.31;;;20.60;48.64
53246;BME280;39569;51.090;-1.786;2024-03-22T09:31:47;101215.09;;;20.48;49.40
53246;BME280;39569;51.090;-1.786;2024-03-22T09:34:16;101220.94;;;20.09;48.93
53246;BME280;39569;51.090;-1.786;2024-03-22T09:36:45;101209.44;;;20.13;47.91
53246;BME280;39569;51.090;-1.786;2024-03-22T09:39:15;101212.31;;;20.36;47.28
53246;BME280;39569;51.090;-1.786;2024-03-22T09:41:43;101226.72;;;19.94;48.76
53246;BME280;39569;51.090;-1.786;2024-03-22T09:44:13;101219.34;;;21.51;45.75
53246;BME280;39569;51.090;-1.786;2024-03-22T09:46:40;101204.81;;;21.69;44.49
53246;BME280;39569;51.090;-1.786;2024-03-22T09:49:10;101206.09;;;22.24;42.97
53246;BME280;39569;51.090;-1.786;2024-03-22T09:51:37;101200.22;;;21.92;43.67
53246;BME280;39569;51.090;-1.786;2024-03-22T09:54:04;101223.16;;;22.08;43.35
53246;BME280;39569;51.090;-1.786;2024-03-22T09:56:30;101205.78;;;21.86;43.36
53246;BME280;39569;51.090;-1.786;2024-03-22T09:58:58;101212.91;;;22.61;42.42
53246;BME280;39569;51.090;-1.786;2024-03-22T10:01:24;101225.31;;;22.17;43.17
53246;BME280;39569;51.090;-1.786;2024-03-22T10:03:51;101215.94;;;22.02;42.85
53246;BME280;39569;51.090;-1.786;2024-03-22T10:06:18;101217.38;;;22.04;43.19
53246;BME280;39569;51.090;-1.786;2024-03-22T10:08:45;101224.78;;;21.51;43.69
53246;BME280;39569;51.090;-1.786;2024-03-22T10:11:11;101231.94;;;20.57;45.16
53246;BME280;39569;51.090;-1.786;2024-03-22T10:13:37;101246.00;;;20.65;45.42
53246;BME280;39569;51.090;-1.786;2024-03-22T10:16:03;101237.97;;;20.88;45.39
53246;BME280;39569;51.090;-1.786;2024-03-22T10:18:32;101234.66;;;21.04;45.01
53246;BME280;39569;51.090;-1.786;2024-03-22T10:20:59;101243.34;;;20.95;44.55
53246;BME280;39569;51.090;-1.786;2024-03-22T10:23:28;101242.09;;;20.61;44.39
53246;BME280;39569;51.090;-1.786;2024-03-22T10:25:56;101255.06;;;20.41;44.53
53246;BME280;39569;51.090;-1.786;2024-03-22T10:28:23;101254.53;;;20.50;44.95
53246;BME280;39569;51.090;-1.786;2024-03-22T10:30:50;101254.91;;;20.36;44.77
53246;BME280;39569;51.090;-1.786;2024-03-22T10:33:18;101248.78;;;20.22;44.53
53246;BME280;39569;51.090;-1.786;2024-03-22T10:35:45;101245.78;;;20.67;43.53
53246;BME280;39569;51.090;-1.786;2024-03-22T10:38:12;101234.72;;;20.98;42.06
53246;BME280;39569;51.090;-1.786;2024-03-22T10:40:40;101237.16;;;21.06;41.89
53246;BME280;39569;51.090;-1.786;2024-03-22T10:43:10;101236.53;;;20.56;43.71
53246;BME280;39569;51.090;-1.786;2024-03-22T10:45:38;101248.44;;;20.37;43.72
53246;BME280;39569;51.090;-1.786;2024-03-22T10:48:08;101253.56;;;20.45;42.48
53246;BME280;39569;51.090;-1.786;2024-03-22T10:50:35;101247.53;;;20.43;43.45
53246;BME280;39569;51.090;-1.786;2024-03-22T10:53:07;101237.94;;;19.98;42.86
53246;BME280;39569;51.090;-1.786;2024-03-22T10:55:36;101241.72;;;20.39;42.47
53246;BME280;39569;51.090;-1.786;2024-03-22T10:58:05;101240.78;;;20.82;41.08
53246;BME280;39569;51.090;-1.786;2024-03-22T11:00:32;101244.41;;;21.23;41.72
53246;BME280;39569;51.090;-1.786;2024-03-22T11:03:02;101253.31;;;21.30;41.56
53246;BME280;39569;51.090;-1.786;2024-03-22T11:05:28;101243.56;;;21.11;41.69
53246;BME280;39569;51.090;-1.786;2024-03-22T11:07:59;101249.16;;;21.69;40.91
53246;BME280;39569;51.090;-1.786;2024-03-22T11:10:28;101255.03;;;20.95;41.41
53246;BME280;39569;51.090;-1.786;2024-03-22T11:12:55;101261.63;;;20.70;42.48
53246;BME280;39569;51.090;-1.786;2024-03-22T11:15:23;101260.13;;;20.55;43.52
53246;BME280;39569;51.090;-1.786;2024-03-22T11:17:50;101271.66;;;20.51;43.63
53246;BME280;39569;51.090;-1.786;2024-03-22T11:20:15;101266.97;;;21.24;42.95
53246;BME280;39569;51.090;-1.786;2024-03-22T11:22:42;101274.22;;;20.46;44.06
53246;BME280;39569;51.090;-1.786;2024-03-22T11:25:08;101274.75;;;20.73;43.27
53246;BME280;39569;51.090;-1.786;2024-03-22T11:27:35;101263.13;;;20.84;43.22
53246;BME280;39569;51.090;-1.786;2024-03-22T11:30:01;101268.47;;;20.72;43.70
53246;BME280;39569;51.090;-1.786;2024-03-22T11:32:30;101270.00;;;20.32;43.58
53246;BME280;39569;51.090;-1.786;2024-03-22T11:34:56;101265.16;;;20.34;42.49
53246;BME280;39569;51.090;-1.786;2024-03-22T11:37:23;101263.13;;;20.84;42.11
53246;BME280;39569;51.090;-1.786;2024-03-22T11:39:49;101257.91;;;20.82;42.37
53246;BME280;39569;51.090;-1.786;2024-03-22T11:42:16;101247.34;;;21.10;42.15
53246;BME280;39569;51.090;-1.786;2024-03-22T11:44:43;101244.59;;;20.92;42.61
53246;BME280;39569;51.090;-1.786;2024-03-22T11:47:10;101250.88;;;21.52;42.21
53246;BME280;39569;51.090;-1.786;2024-03-22T11:49:37;101248.97;;;21.41;42.57
53246;BME280;39569;51.090;-1.786;2024-03-22T11:52:04;101253.94;;;20.67;44.07
53246;BME280;39569;51.090;-1.786;2024-03-22T11:54:33;101239.56;;;21.14;43.38
53246;BME280;39569;51.090;-1.786;2024-03-22T11:57:00;101232.06;;;21.39;42.75
53246;BME280;39569;51.090;-1.786;2024-03-22T11:59:25;101231.59;;;21.53;42.60
53246;BME280;39569;51.090;-1.786;2024-03-22T12:01:52;101231.78;;;20.70;44.31
53246;BME280;39569;51.090;-1.786;2024-03-22T12:04:19;101216.28;;;21.18;43.66
53246;BME280;39569;51.090;-1.786;2024-03-22T12:06:47;101211.53;;;21.13;43.36
53246;BME280;39569;51.090;-1.786;2024-03-22T12:09:14;101207.78;;;20.67;43.04
53246;BME280;39569;51.090;-1.786;2024-03-22T12:11:40;101220.13;;;20.08;45.42
53246;BME280;39569;51.090;-1.786;2024-03-22T12:14:06;101212.59;;;20.10;44.86
53246;BME280;39569;51.090;-1.786;2024-03-22T12:16:33;101198.84;;;20.05;45.20
53246;BME280;39569;51.090;-1.786;2024-03-22T12:18:58;101198.34;;;19.16;46.05
53246;BME280;39569;51.090;-1.786;2024-03-22T12:21:25;101197.38;;;18.73;47.73
53246;BME280;39569;51.090;-1.786;2024-03-22T12:23:52;101208.47;;;19.03;47.78
53246;BME280;39569;51.090;-1.786;2024-03-22T12:26:19;101206.94;;;19.07;46.96
53246;BME280;39569;51.090;-1.786;2024-03-22T12:28:45;101209.91;;;19.86;45.97
53246;BME280;39569;51.090;-1.786;2024-03-22T12:31:11;101206.88;;;19.76;45.48
53246;BME280;39569;51.090;-1.786;2024-03-22T12:33:37;101208.31;;;19.53;45.34
53246;BME280;39569;51.090;-1.786;2024-03-22T12:36:04;101210.03;;;19.48;45.15
53246;BME280;39569;51.090;-1.786;2024-03-22T12:38:30;101209.94;;;19.30;46.16